Time;durP1;ratioP1;P1;durP2;ratioP2;P2;SDS_P1;SDS_P2;PMS_P1;PMS_P2;Temp;Humidity;BMP_temperature;BMP_pressure;BME280_temperature;BME280_humidity;BME280_pressure;Samples;Min_cycle;Max_cycle;Signal;HPM_P1;HPM_P2
2023/06/04 00:02:08;;;;;;;1.75;0.82;;;12.50;99.90;;;;;;4961635;28;20071;-68
2023/06/04 00:04:34;;;;;;;3.60;0.98;;;12.50;99.90;;;;;;4961018;28;20077;-62
2023/06/04 00:07:01;;;;;;;2.45;1.10;;;12.40;99.90;;;;;;4962189;28;20051;-67
2023/06/04 00:09:28;;;;;;;5.60;0.88;;;12.40;99.90;;;;;;4962736;28;20113;-73
2023/06/04 00:11:55;;;;;;;1.95;0.93;;;12.40;99.90;;;;;;4955966;28;20145;-63
2023/06/04 00:14:23;;;;;;;1.45;1.33;;;12.40;99.90;;;;;;4959343;28;20051;-66
2023/06/04 00:16:50;;;;;;;1.38;0.90;;;12.30;99.90;;;;;;4962026;28;20043;-67
2023/06/04 00:19:17;;;;;;;3.97;1.73;;;12.30;99.90;;;;;;4962294;28;20061;-67
2023/06/04 00:21:45;;;;;;;5.50;1.25;;;12.30;99.90;;;;;;4957933;28;20059;-66
2023/06/04 00:24:12;;;;;;;3.58;1.23;;;12.30;99.90;;;;;;4960193;28;20547;-67
2023/06/04 00:26:40;;;;;;;4.28;1.38;;;12.30;99.90;;;;;;4961265;28;20081;-63
2023/06/04 00:29:07;;;;;;;3.83;2.13;;;12.30;99.90;;;;;;4961256;28;20138;-64
2023/06/04 00:31:34;;;;;;;2.28;1.00;;;12.30;99.90;;;;;;4959267;28;20050;-61
2023/06/04 00:34:02;;;;;;;3.00;1.60;;;12.30;99.90;;;;;;4960079;28;20082;-66
2023/06/04 00:36:29;;;;;;;3.05;1.27;;;12.30;99.90;;;;;;4974309;28;20046;-63
2023/06/04 00:38:56;;;;;;;2.40;1.17;;;12.20;99.90;;;;;;4959767;28;20054;-71
2023/06/04 00:41:23;;;;;;;1.48;0.82;;;12.20;99.90;;;;;;4962933;28;20141;-65
2023/06/04 00:43:55;;;;;;;3.58;1.02;;;12.20;99.90;;;;;;4962961;28;20192;-68
2023/06/04 00:46:25;;;;;;;5.65;1.30;;;12.20;99.90;;;;;;4973571;28;20054;-68
2023/06/04 00:48:53;;;;;;;1.98;1.30;;;12.30;99.90;;;;;;4963558;28;20137;-66
2023/06/04 00:51:21;;;;;;;3.90;1.40;;;12.30;99.90;;;;;;4960706;28;20157;-64
2023/06/04 00:53:52;;;;;;;1.98;1.45;;;12.30;99.90;;;;;;4973823;28;20070;-60
2023/06/04 00:56:19;;;;;;;3.38;0.73;;;12.30;99.90;;;;;;4961591;28;20117;-64
2023/06/04 00:58:47;;;;;;;3.45;1.48;;;12.30;99.90;;;;;;4967256;28;20169;-60
2023/06/04 01:01:40;;;;;;;3.22;0.90;;;12.30;99.90;;;;;;4966343;28;20058;-66
2023/06/04 01:04:34;;;;;;;1.25;1.15;;;12.20;99.90;;;;;;4965027;28;20968;-68
2023/06/04 01:07:04;;;;;;;3.08;1.80;;;12.20;99.90;;;;;;4965071;28;20592;-61
2023/06/04 01:09:32;;;;;;;2.10;1.17;;;12.20;99.90;;;;;;4965834;28;20054;-60
2023/06/04 01:12:01;;;;;;;1.20;0.95;;;12.20;99.90;;;;;;4966428;28;20057;-64
2023/06/04 01:14:29;;;;;;;2.28;1.13;;;12.20;99.90;;;;;;4973360;28;20046;-63
2023/06/04 01:17:03;;;;;;;4.82;1.40;;;12.10;99.90;;;;;;4964755;28;20134;-63
2023/06/04 01:20:04;;;;;;;4.00;1.23;;;12.10;99.90;;;;;;4966232;28;20497;-62
2023/06/04 01:22:39;;;;;;;;;;;12.10;99.90;;;;;;4970703;28;20084;-63
2023/06/04 01:25:19;;;;;;;2.55;1.13;;;12.00;99.90;;;;;;4964956;28;19961;-64
2023/06/04 01:27:50;;;;;;;3.00;1.63;;;12.00;99.90;;;;;;4967040;28;20058;-60
2023/06/04 01:30:20;;;;;;;4.47;1.20;;;12.00;99.90;;;;;;4965113;28;20058;-68
2023/06/04 01:32:47;;;;;;;4.57;1.60;;;12.00;99.90;;;;;;4964144;28;20058;-61
2023/06/04 01:35:14;;;;;;;3.08;1.30;;;12.00;99.90;;;;;;4964033;28;20058;-63
2023/06/04 01:37:41;;;;;;;4.88;1.30;;;12.00;99.90;;;;;;4962951;28;20098;-60
2023/06/04 01:40:08;;;;;;;5.72;2.10;;;12.00;99.90;;;;;;4966379;28;20059;-62
2023/06/04 01:42:35;;;;;;;2.17;0.90;;;12.00;99.90;;;;;;4964425;28;20169;-65
2023/06/04 01:45:03;;;;;;;1.52;1.27;;;12.10;99.90;;;;;;4980805;28;20438;-67
2023/06/04 01:47:30;;;;;;;3.55;1.17;;;12.10;99.90;;;;;;4964132;28;20046;-63
2023/06/04 01:49:56;;;;;;;2.28;1.70;;;12.10;99.90;;;;;;4967440;28;20074;-64
2023/06/04 01:52:24;;;;;;;1.20;0.75;;;12.20;99.90;;;;;;4972955;28;20069;-68
2023/06/04 01:54:52;;;;;;;5.03;1.13;;;12.20;99.90;;;;;;4965599;28;20054;-61
2023/06/04 01:57:21;;;;;;;2.53;1.05;;;12.30;99.90;;;;;;4965732;28;20058;-65
2023/06/04 01:59:48;;;;;;;7.15;1.75;;;12.30;99.90;;;;;;4955802;28;20094;-68
2023/06/04 02:02:15;;;;;;;1.70;1.45;;;12.40;99.90;;;;;;4963775;28;20412;-62
2023/06/04 02:04:42;;;;;;;1.27;1.00;;;12.30;99.90;;;;;;4966357;28;20066;-64
2023/06/04 02:07:09;;;;;;;1.58;1.15;;;12.40;99.90;;;;;;4979532;28;20156;-69
2023/06/04 02:09:37;;;;;;;1.17;1.08;;;12.40;99.90;;;;;;4963517;28;20074;-61
2023/06/04 02:12:04;;;;;;;6.88;1.90;;;12.40;99.90;;;;;;4961463;28;20066;-62
2023/06/04 02:14:31;;;;;;;5.95;2.45;;;12.40;99.90;;;;;;4960308;28;20782;-62
2023/06/04 02:16:58;;;;;;;2.38;1.10;;;12.40;99.90;;;;;;4957930;28;20141;-63
2023/06/04 02:19:28;;;;;;;1.30;1.20;;;12.40;99.90;;;;;;4963553;28;20133;-64
2023/06/04 02:21:55;;;;;;;3.85;1.83;;;12.40;99.90;;;;;;4960259;28;20061;-64
2023/06/04 02:24:22;;;;;;;1.42;1.30;;;12.40;99.90;;;;;;4963860;28;20148;-67
2023/06/04 02:26:49;;;;;;;3.05;2.10;;;12.30;99.90;;;;;;4957624;28;20058;-62
2023/06/04 02:29:16;;;;;;;1.63;1.10;;;12.30;99.90;;;;;;4960174;28;20107;-75
2023/06/04 02:31:43;;;;;;;1.58;1.27;;;12.30;99.90;;;;;;4962064;28;20051;-63
2023/06/04 02:34:10;;;;;;;3.20;1.83;;;12.30;99.90;;;;;;4963014;28;20212;-67
2023/06/04 02:36:37;;;;;;;11.07;2.08;;;12.20;99.90;;;;;;4962430;28;20055;-63
2023/06/04 02:39:04;;;;;;;1.83;1.65;;;12.20;99.90;;;;;;4965075;28;20074;-66
2023/06/04 02:41:31;;;;;;;1.83;1.25;;;12.20;99.90;;;;;;4965097;28;20063;-64
2023/06/04 02:43:57;;;;;;;5.53;2.15;;;12.20;99.90;;;;;;4962491;28;20117;-63
2023/06/04 02:46:24;;;;;;;1.80;1.40;;;12.20;99.90;;;;;;4962865;28;20054;-64
2023/06/04 02:48:51;;;;;;;3.15;1.60;;;12.20;99.90;;;;;;4964604;28;20158;-63
2023/06/04 02:51:18;;;;;;;3.70;1.30;;;12.10;99.90;;;;;;4963295;28;20061;-60
2023/06/04 02:53:46;;;;;;;2.22;1.35;;;12.10;99.90;;;;;;4964032;28;20062;-60
2023/06/04 02:56:13;;;;;;;2.28;1.15;;;12.10;99.90;;;;;;4963668;28;20058;-64
2023/06/04 02:58:55;;;;;;;1.92;1.73;;;12.10;99.90;;;;;;4962539;28;20800;-63
2023/06/04 03:01:23;;;;;;;2.70;1.88;;;12.10;99.90;;;;;;4972282;28;20054;-71
2023/06/04 03:03:51;;;;;;;7.00;2.25;;;12.10;99.90;;;;;;4967921;28;20481;-66
2023/06/04 03:06:22;;;;;;;4.03;1.70;;;12.10;99.90;;;;;;4961290;28;20520;-65
2023/06/04 03:08:52;;;;;;;7.97;1.65;;;12.10;99.90;;;;;;4977809;28;20141;-60
2023/06/04 03:11:20;;;;;;;4.18;2.17;;;12.10;99.90;;;;;;4965223;28;20055;-60
2023/06/04 03:13:49;;;;;;;4.18;2.15;;;12.10;99.90;;;;;;4964507;28;20054;-61
2023/06/04 03:16:15;;;;;;;3.65;1.38;;;12.10;99.90;;;;;;4961675;28;20136;-68
2023/06/04 03:18:44;;;;;;;4.45;1.95;;;12.10;99.90;;;;;;4962013;28;20069;-65
2023/06/04 03:21:13;;;;;;;7.55;2.08;;;12.10;99.90;;;;;;4959261;28;20059;-65
2023/06/04 03:23:41;;;;;;;3.58;1.25;;;12.00;99.90;;;;;;4975308;28;20125;-61
2023/06/04 03:26:08;;;;;;;3.03;1.85;;;12.00;99.90;;;;;;4972297;28;20160;-70
2023/06/04 03:28:35;;;;;;;1.70;1.55;;;12.00;99.90;;;;;;4976529;28;20109;-61
2023/06/04 03:31:04;;;;;;;2.80;1.55;;;12.10;99.90;;;;;;4962923;28;20536;-66
2023/06/04 03:33:31;;;;;;;1.73;1.30;;;12.10;99.90;;;;;;4961260;28;20106;-61
2023/06/04 03:35:58;;;;;;;2.03;1.77;;;12.10;99.90;;;;;;4962183;28;20086;-60
2023/06/04 03:38:26;;;;;;;1.70;1.10;;;12.10;99.90;;;;;;4958177;28;20050;-63
2023/06/04 03:40:53;;;;;;;5.18;2.97;;;12.10;99.90;;;;;;4960858;28;20054;-72
2023/06/04 03:43:20;;;;;;;2.35;1.52;;;12.10;99.90;;;;;;4961921;28;20060;-64
2023/06/04 03:45:50;;;;;;;;;;;12.10;99.90;;;;;;4962284;28;20413;-61
2023/06/04 03:48:17;;;;;;;2.70;1.30;;;12.10;99.90;;;;;;4963399;28;19925;-65
2023/06/04 03:50:45;;;;;;;2.13;1.45;;;12.10;99.90;;;;;;4959164;28;20074;-67
2023/06/04 03:53:14;;;;;;;4.63;1.45;;;12.10;99.90;;;;;;4951017;28;20059;-66
2023/06/04 03:55:41;;;;;;;1.83;1.67;;;12.10;99.90;;;;;;4960129;28;20065;-63
2023/06/04 03:58:11;;;;;;;2.60;1.60;;;12.20;99.90;;;;;;4961466;28;20065;-63
2023/06/04 04:00:42;;;;;;;4.78;1.70;;;12.20;99.90;;;;;;4960437;28;20559;-67
2023/06/04 04:03:09;;;;;;;4.85;1.92;;;12.20;99.90;;;;;;4964538;28;20902;-60
2023/06/04 04:05:37;;;;;;;4.20;1.63;;;12.20;99.90;;;;;;4976016;28;20050;-70
2023/06/04 04:08:05;;;;;;;4.75;1.90;;;12.20;99.90;;;;;;4977875;28;20428;-66
2023/06/04 04:10:33;;;;;;;3.13;1.58;;;12.30;99.90;;;;;;4959798;28;20101;-62
2023/06/04 04:13:02;;;;;;;3.38;2.13;;;12.30;99.90;;;;;;4980413;28;20144;-65
2023/06/04 04:15:33;;;;;;;6.22;3.38;;;12.30;99.90;;;;;;4961351;28;20833;-62
2023/06/04 04:18:03;;;;;;;2.47;2.17;;;12.30;99.90;;;;;;4961712;28;20057;-72
2023/06/04 04:20:30;;;;;;;4.30;1.35;;;12.30;99.90;;;;;;4975701;28;20046;-63
2023/06/04 04:23:02;;;;;;;3.30;1.38;;;12.40;99.90;;;;;;4959446;28;20055;-69
2023/06/04 04:25:32;;;;;;;2.08;1.30;;;12.40;99.90;;;;;;4962789;28;20141;-62
2023/06/04 04:28:02;;;;;;;4.80;2.13;;;12.40;99.90;;;;;;4961882;28;20150;-64
2023/06/04 04:30:33;;;;;;;2.50;1.88;;;12.40;99.90;;;;;;4957647;28;20062;-61
2023/06/04 04:33:01;;;;;;;2.15;1.83;;;12.40;99.90;;;;;;4971923;28;20078;-66
2023/06/04 04:35:34;;;;;;;1.92;1.55;;;12.30;99.90;;;;;;4962240;28;20078;-66
2023/06/04 04:38:03;;;;;;;2.33;1.58;;;12.40;99.90;;;;;;4980521;28;20055;-60
2023/06/04 04:40:35;;;;;;;4.05;1.90;;;12.40;99.90;;;;;;4963005;28;20046;-64
2023/06/04 04:43:05;;;;;;;2.85;2.03;;;12.40;99.90;;;;;;4981376;28;20582;-64
2023/06/04 04:45:33;;;;;;;2.47;1.80;;;12.50;99.90;;;;;;4976180;28;20042;-63
2023/06/04 04:48:02;;;;;;;4.15;1.83;;;12.50;99.90;;;;;;4963965;28;20047;-75
2023/06/04 04:50:31;;;;;;;1.98;1.52;;;12.50;99.90;;;;;;4972377;28;20066;-68
2023/06/04 04:52:59;;;;;;;2.38;1.92;;;12.60;99.90;;;;;;4963463;28;20416;-69
2023/06/04 04:55:26;;;;;;;4.93;2.03;;;12.60;99.90;;;;;;4965410;28;20065;-73
2023/06/04 04:57:53;;;;;;;4.45;1.75;;;12.70;99.90;;;;;;4964587;28;20047;-62
2023/06/04 05:00:21;;;;;;;4.03;2.40;;;12.70;99.90;;;;;;4962574;28;20054;-63
2023/06/04 05:02:52;;;;;;;3.35;2.17;;;12.70;99.90;;;;;;4964499;28;20065;-66
2023/06/04 05:05:19;;;;;;;3.53;1.75;;;12.70;99.90;;;;;;4966482;28;20536;-64
2023/06/04 05:07:48;;;;;;;6.10;2.45;;;12.70;99.90;;;;;;4961780;28;20218;-62
2023/06/04 05:10:17;;;;;;;7.32;1.90;;;12.80;99.90;;;;;;4970628;28;20051;-66
2023/06/04 05:12:55;;;;;;;3.78;1.45;;;12.90;99.90;;;;;;4978155;28;20050;-66
2023/06/04 05:15:26;;;;;;;2.35;1.50;;;12.90;99.90;;;;;;4978742;28;20883;-65
2023/06/04 05:17:56;;;;;;;2.88;1.52;;;12.90;99.90;;;;;;4962069;28;20066;-65
2023/06/04 05:20:25;;;;;;;3.42;1.80;;;12.90;99.90;;;;;;4979848;28;20054;-71
2023/06/04 05:22:52;;;;;;;8.25;2.03;;;12.90;99.90;;;;;;4978173;28;20051;-64
2023/06/04 05:25:20;;;;;;;2.13;1.95;;;13.00;99.90;;;;;;4970427;28;20506;-67
2023/06/04 05:27:49;;;;;;;3.65;1.73;;;13.10;99.90;;;;;;4967679;28;20852;-62
2023/06/04 05:30:17;;;;;;;2.65;1.95;;;13.10;99.90;;;;;;4979590;28;20065;-65
2023/06/04 05:32:44;;;;;;;4.55;1.52;;;13.00;99.90;;;;;;4962793;28;20051;-64
2023/06/04 05:35:15;;;;;;;3.30;2.03;;;13.00;99.90;;;;;;4982768;28;20047;-61
2023/06/04 05:37:45;;;;;;;2.10;1.33;;;13.00;99.90;;;;;;4978303;28;20053;-61
2023/06/04 05:40:15;;;;;;;2.30;2.08;;;13.00;99.90;;;;;;4960916;28;20438;-63
2023/06/04 05:42:43;;;;;;;2.53;1.65;;;13.00;99.90;;;;;;4980686;28;20080;-69
2023/06/04 05:45:10;;;;;;;2.35;2.15;;;13.00;99.90;;;;;;4966260;28;20198;-64
2023/06/04 05:47:39;;;;;;;3.75;2.00;;;13.00;99.90;;;;;;4963118;28;20189;-63
2023/06/04 05:50:06;;;;;;;2.78;2.20;;;13.00;99.90;;;;;;4981179;28;20410;-75
2023/06/04 05:52:35;;;;;;;3.30;1.60;;;13.00;99.90;;;;;;4961817;28;20531;-62
2023/06/04 05:55:02;;;;;;;2.00;1.58;;;13.00;99.90;;;;;;4963719;28;20082;-66
2023/06/04 05:57:29;;;;;;;3.00;1.45;;;13.00;99.90;;;;;;4981239;28;20065;-74
2023/06/04 05:59:56;;;;;;;3.75;2.15;;;12.90;99.90;;;;;;4965653;28;20131;-64
2023/06/04 06:02:23;;;;;;;3.70;1.42;;;13.00;99.90;;;;;;4971800;28;20047;-69
2023/06/04 06:04:50;;;;;;;2.72;1.60;;;13.00;99.90;;;;;;4966632;28;20046;-67
2023/06/04 06:07:19;;;;;;;3.97;1.55;;;13.00;99.90;;;;;;4960054;28;20119;-69
2023/06/04 06:09:46;;;;;;;2.60;2.28;;;13.00;99.90;;;;;;4965652;28;20492;-67
2023/06/04 06:12:13;;;;;;;5.78;2.28;;;13.00;99.90;;;;;;4972315;28;20086;-64
2023/06/04 06:14:41;;;;;;;3.25;1.95;;;13.10;99.90;;;;;;4970607;28;20121;-60
2023/06/04 06:17:08;;;;;;;3.15;1.70;;;13.10;99.90;;;;;;4966280;28;20740;-63
2023/06/04 06:19:37;;;;;;;5.72;2.70;;;13.10;99.90;;;;;;4960272;28;20051;-66
2023/06/04 06:22:04;;;;;;;6.20;2.00;;;13.10;99.90;;;;;;4963591;28;21740;-61
2023/06/04 06:24:32;;;;;;;3.38;1.75;;;13.10;99.90;;;;;;4961257;28;20051;-62
2023/06/04 06:26:58;;;;;;;4.13;2.13;;;13.10;99.90;;;;;;4964844;28;20835;-73
2023/06/04 06:29:26;;;;;;;5.00;1.55;;;13.10;99.90;;;;;;4964579;28;20062;-68
2023/06/04 06:31:53;;;;;;;4.90;2.00;;;13.20;99.90;;;;;;4977671;28;20074;-66
2023/06/04 06:34:20;;;;;;;5.07;1.88;;;13.10;99.90;;;;;;4960696;28;20050;-70
2023/06/04 06:36:48;;;;;;;7.72;1.73;;;13.20;99.90;;;;;;4962970;28;20046;-63
2023/06/04 06:39:15;;;;;;;4.30;1.55;;;13.20;99.90;;;;;;4964269;28;20042;-62
2023/06/04 06:41:42;;;;;;;2.08;1.70;;;13.10;99.90;;;;;;4964461;28;20067;-72
2023/06/04 06:44:13;;;;;;;8.52;2.15;;;13.10;99.90;;;;;;4963428;28;20050;-63
2023/06/04 06:46:40;;;;;;;8.63;2.47;;;13.10;99.90;;;;;;4963570;28;20129;-61
2023/06/04 06:49:07;;;;;;;3.28;1.95;;;13.10;99.90;;;;;;4964958;28;20054;-64
2023/06/04 06:51:34;;;;;;;2.20;1.83;;;13.00;99.90;;;;;;4964274;28;20557;-65
2023/06/04 06:54:01;;;;;;;3.15;1.92;;;13.10;99.90;;;;;;4963484;28;20051;-67
2023/06/04 06:56:28;;;;;;;5.70;2.17;;;13.10;99.90;;;;;;4961933;28;20054;-68
2023/06/04 06:58:55;;;;;;;5.35;1.85;;;13.10;99.90;;;;;;4965478;28;20113;-66
2023/06/04 07:01:22;;;;;;;3.97;2.35;;;13.20;99.90;;;;;;4963490;28;20100;-69
2023/06/04 07:03:49;;;;;;;4.53;1.98;;;13.20;99.90;;;;;;4966879;28;20078;-63
2023/06/04 07:06:16;;;;;;;4.45;1.80;;;13.30;99.90;;;;;;4960367;28;20067;-63
2023/06/04 07:08:43;;;;;;;5.70;1.98;;;13.20;99.90;;;;;;4957509;28;20082;-67
2023/06/04 07:11:13;;;;;;;10.00;2.53;;;13.20;99.90;;;;;;4964855;28;20059;-69
2023/06/04 07:13:40;;;;;;;3.00;1.63;;;13.30;99.90;;;;;;4963990;28;20073;-62
2023/06/04 07:16:07;;;;;;;5.55;2.10;;;13.30;99.90;;;;;;4963314;28;20073;-63
2023/06/04 07:18:34;;;;;;;6.53;3.30;;;13.40;99.90;;;;;;4961063;28;20116;-64
2023/06/04 07:21:01;;;;;;;5.03;1.55;;;13.30;99.90;;;;;;4963037;28;20133;-66
2023/06/04 07:23:28;;;;;;;2.38;1.60;;;13.40;99.90;;;;;;4964674;28;20059;-60
2023/06/04 07:25:56;;;;;;;3.97;1.60;;;13.40;99.90;;;;;;4964213;28;20069;-63
2023/06/04 07:28:23;;;;;;;2.85;1.40;;;13.50;99.90;;;;;;4960682;28;20117;-63
2023/06/04 07:30:50;;;;;;;1.52;1.25;;;13.50;99.90;;;;;;4961940;28;20050;-66
2023/06/04 07:33:17;;;;;;;3.45;2.97;;;13.40;99.90;;;;;;4963393;28;20057;-63
2023/06/04 07:35:44;;;;;;;8.60;1.27;;;13.40;99.90;;;;;;4959728;28;20070;-66
2023/06/04 07:38:11;;;;;;;2.28;1.63;;;13.40;99.90;;;;;;4963248;28;20501;-61
2023/06/04 07:40:38;;;;;;;2.92;1.30;;;13.50;99.90;;;;;;4963150;28;20847;-63
2023/06/04 07:43:05;;;;;;;1.48;0.98;;;13.60;99.90;;;;;;4964582;28;20897;-60
2023/06/04 07:45:32;;;;;;;3.33;1.23;;;13.70;99.90;;;;;;4963442;28;20624;-60
2023/06/04 07:48:02;;;;;;;3.63;1.20;;;13.70;99.90;;;;;;4964112;28;20159;-72
2023/06/04 07:50:29;;;;;;;2.42;1.08;;;13.70;99.90;;;;;;4961018;28;20134;-68
2023/06/04 07:52:58;;;;;;;1.35;1.25;;;13.70;99.90;;;;;;4962220;28;20065;-66
2023/06/04 07:55:26;;;;;;;7.93;1.00;;;13.80;99.90;;;;;;4963445;28;20499;-64
2023/06/04 07:57:53;;;;;;;3.10;0.93;;;13.80;99.90;;;;;;4963219;28;20064;-69
2023/06/04 08:00:19;;;;;;;1.33;0.73;;;13.90;99.90;;;;;;4962933;28;20336;-64
2023/06/04 08:02:48;;;;;;;1.10;0.75;;;14.00;99.90;;;;;;4962641;28;20065;-62
2023/06/04 08:05:15;;;;;;;2.85;0.85;;;14.10;99.90;;;;;;4963776;28;20096;-65
2023/06/04 08:07:43;;;;;;;1.63;1.00;;;14.10;99.90;;;;;;4960742;28;20051;-62
2023/06/04 08:10:10;;;;;;;1.17;0.80;;;14.20;99.90;;;;;;4964531;28;20525;-62
2023/06/04 08:12:38;;;;;;;2.05;1.02;;;14.30;99.90;;;;;;4961142;28;20051;-60
2023/06/04 08:15:05;;;;;;;1.65;1.08;;;14.20;99.90;;;;;;4966421;28;20125;-64
2023/06/04 08:17:32;;;;;;;1.00;1.00;;;14.30;99.90;;;;;;4962753;28;20047;-61
2023/06/04 08:19:59;;;;;;;6.43;1.42;;;14.30;99.90;;;;;;4962351;28;20059;-63
2023/06/04 08:22:29;;;;;;;2.92;1.00;;;14.40;99.90;;;;;;4959976;28;20166;-67
2023/06/04 08:24:55;;;;;;;5.15;0.73;;;14.50;99.90;;;;;;4962102;28;20652;-69
2023/06/04 08:27:22;;;;;;;2.38;1.15;;;14.60;99.90;;;;;;4965173;28;20063;-65
2023/06/04 08:29:49;;;;;;;2.13;0.75;;;14.60;99.90;;;;;;4962485;28;20061;-67
2023/06/04 08:32:16;;;;;;;1.33;0.80;;;14.40;99.90;;;;;;4962350;28;20051;-71
2023/06/04 08:34:43;;;;;;;2.50;0.70;;;14.50;99.90;;;;;;4956960;28;20059;-63
2023/06/04 08:37:10;;;;;;;3.47;1.00;;;14.50;99.90;;;;;;4961436;28;20043;-67
2023/06/04 08:39:37;;;;;;;6.22;1.33;;;14.30;99.90;;;;;;4963628;28;20114;-63
2023/06/04 08:42:09;;;;;;;2.40;1.25;;;14.40;99.90;;;;;;4962528;28;20480;-61
2023/06/04 08:44:36;;;;;;;2.25;0.80;;;14.30;99.90;;;;;;4961581;28;20071;-73
2023/06/04 08:47:05;;;;;;;4.55;1.17;;;14.30;99.90;;;;;;4962473;28;20560;-61
2023/06/04 08:49:36;;;;;;;2.90;0.63;;;14.30;99.90;;;;;;4962228;28;20137;-61
2023/06/04 08:52:05;;;;;;;5.18;1.38;;;14.40;99.90;;;;;;4961640;28;20055;-68
2023/06/04 08:54:33;;;;;;;2.22;1.10;;;14.50;99.90;;;;;;4958409;28;20051;-59
2023/06/04 08:57:00;;;;;;;3.38;1.48;;;14.60;99.90;;;;;;4963408;28;20051;-62
2023/06/04 08:59:28;;;;;;;1.38;0.77;;;14.60;99.90;;;;;;4959244;28;20063;-60
2023/06/04 09:01:56;;;;;;;7.55;1.45;;;14.50;99.90;;;;;;4977788;28;20413;-64
2023/06/04 09:04:24;;;;;;;1.73;0.65;;;14.50;99.90;;;;;;4962105;28;20397;-65
2023/06/04 09:06:52;;;;;;;2.45;0.50;;;14.40;99.90;;;;;;4965766;28;20045;-63
2023/06/04 09:09:21;;;;;;;2.20;0.90;;;14.30;99.90;;;;;;4962297;28;20558;-64
2023/06/04 09:11:52;;;;;;;2.47;0.60;;;14.30;99.90;;;;;;4962425;28;20049;-63
2023/06/04 09:14:20;;;;;;;2.40;0.60;;;14.30;99.90;;;;;;4961226;28;20063;-69
2023/06/04 09:16:53;;;;;;;1.15;1.02;;;14.20;99.90;;;;;;4961835;28;20035;-65
2023/06/04 09:19:20;;;;;;;1.63;0.90;;;14.20;99.90;;;;;;4965831;28;20059;-68
2023/06/04 09:21:55;;;;;;;3.25;1.15;;;14.20;99.90;;;;;;4965860;28;20133;-64
2023/06/04 09:24:40;;;;;;;1.85;1.08;;;14.20;99.90;;;;;;4965013;28;20144;-67
2023/06/04 09:27:15;;;;;;;1.17;0.70;;;14.10;99.90;;;;;;4966190;28;20145;-66
2023/06/04 09:29:53;;;;;;;3.50;1.10;;;14.10;99.90;;;;;;4964460;28;20077;-63
2023/06/04 09:32:28;;;;;;;3.00;0.70;;;14.10;99.90;;;;;;4961142;28;20057;-65
2023/06/04 09:35:15;;;;;;;4.15;0.90;;;14.20;99.90;;;;;;4963621;28;20145;-61
2023/06/04 09:37:51;;;;;;;2.22;1.20;;;14.10;99.90;;;;;;4963472;28;20512;-64
2023/06/04 09:40:18;;;;;;;1.90;0.82;;;14.20;99.90;;;;;;4965187;28;20050;-65
2023/06/04 09:42:49;;;;;;;1.15;0.60;;;14.30;99.90;;;;;;4963612;28;20058;-61
2023/06/04 09:45:28;;;;;;;3.72;1.00;;;14.30;99.90;;;;;;4965388;28;20063;-66
2023/06/04 09:47:55;;;;;;;5.07;0.90;;;14.00;99.90;;;;;;4963145;28;20493;-70
2023/06/04 09:50:41;;;;;;;1.35;0.70;;;14.20;99.90;;;;;;4965840;28;20888;-62
2023/06/04 09:53:25;;;;;;;2.08;0.65;;;14.30;99.90;;;;;;4965301;28;20047;-65
2023/06/04 09:56:00;;;;;;;2.00;0.93;;;14.30;99.90;;;;;;4965325;28;20420;-63
2023/06/04 09:58:28;;;;;;;1.30;0.77;;;14.40;99.90;;;;;;4964407;28;20094;-60
2023/06/04 10:00:58;;;;;;;1.35;0.70;;;14.60;99.90;;;;;;4966280;28;20058;-63
2023/06/04 10:03:26;;;;;;;4.47;0.60;;;14.80;99.90;;;;;;4966292;28;20089;-65
2023/06/04 10:05:55;;;;;;;0.70;0.50;;;14.90;99.90;;;;;;4963591;28;20043;-64
2023/06/04 10:08:25;;;;;;;2.80;1.27;;;14.80;99.90;;;;;;4964714;28;20059;-72
2023/06/04 10:11:05;;;;;;;0.80;0.60;;;14.90;99.90;;;;;;4964489;28;20468;-68
2023/06/04 10:13:45;;;;;;;1.20;0.98;;;15.00;99.90;;;;;;4964648;28;20090;-70
2023/06/04 10:16:13;;;;;;;4.68;1.42;;;14.80;99.90;;;;;;4963640;28;20086;-64
2023/06/04 10:18:56;;;;;;;0.80;0.43;;;14.70;99.90;;;;;;4964161;28;20138;-64
2023/06/04 10:21:25;;;;;;;1.00;0.35;;;14.60;99.90;;;;;;4964039;28;20265;-62
2023/06/04 10:23:52;;;;;;;0.57;0.57;;;14.50;99.90;;;;;;4964980;28;20154;-63
2023/06/04 10:26:19;;;;;;;1.60;0.60;;;14.50;99.90;;;;;;4961813;28;20062;-63
2023/06/04 10:28:46;;;;;;;6.25;0.50;;;14.50;99.90;;;;;;4965315;28;21517;-61
2023/06/04 10:31:13;;;;;;;1.00;0.47;;;14.60;99.90;;;;;;4965078;28;20642;-62
2023/06/04 10:33:40;;;;;;;4.03;0.60;;;14.80;99.90;;;;;;4964629;28;20062;-65
2023/06/04 10:36:21;;;;;;;0.93;0.63;;;14.90;99.90;;;;;;4962601;28;20085;-72
2023/06/04 10:38:51;;;;;;;3.17;0.90;;;15.10;99.90;;;;;;4962998;28;20142;-62
2023/06/04 10:41:23;;;;;;;1.35;0.60;;;15.40;99.90;;;;;;4964481;28;20078;-66
2023/06/04 10:43:59;;;;;;;2.40;0.77;;;15.50;99.90;;;;;;4962661;28;20566;-62
2023/06/04 10:46:40;;;;;;;2.22;0.88;;;15.60;99.90;;;;;;4962156;28;20058;-66
2023/06/04 10:49:10;;;;;;;0.63;0.40;;;15.70;99.90;;;;;;4962024;28;20559;-63
2023/06/04 10:51:37;;;;;;;1.52;0.47;;;15.80;99.60;;;;;;4964060;28;20065;-66
2023/06/04 10:54:05;;;;;;;1.95;0.88;;;15.90;99.50;;;;;;4964847;28;20090;-63
2023/06/04 10:56:34;;;;;;;1.55;1.00;;;16.10;99.40;;;;;;4963057;28;20634;-67
2023/06/04 10:59:14;;;;;;;2.20;1.08;;;16.10;99.00;;;;;;4965709;28;20105;-65
2023/06/04 11:01:41;;;;;;;0.63;0.63;;;16.10;99.30;;;;;;4964628;28;20860;-61
2023/06/04 11:04:26;;;;;;;1.92;1.75;;;15.90;98.90;;;;;;4965551;28;21018;-63
2023/06/04 11:07:10;;;;;;;1.10;0.98;;;15.80;99.30;;;;;;4961514;28;20088;-63
2023/06/04 11:09:47;;;;;;;1.45;0.80;;;15.80;99.10;;;;;;4963115;28;20086;-66
2023/06/04 11:12:14;;;;;;;4.22;2.03;;;16.00;99.00;;;;;;4959211;28;20560;-61
2023/06/04 11:14:52;;;;;;;2.50;0.90;;;16.10;99.20;;;;;;4955482;28;20113;-66
2023/06/04 11:17:19;;;;;;;1.60;1.50;;;16.00;99.30;;;;;;4972456;28;20062;-65
2023/06/04 11:19:46;;;;;;;3.80;1.38;;;16.20;99.30;;;;;;4957104;28;20358;-63
2023/06/04 11:22:13;;;;;;;2.00;1.55;;;16.30;99.30;;;;;;4959217;28;20058;-69
2023/06/04 11:24:40;;;;;;;1.35;1.15;;;15.80;99.50;;;;;;4957335;28;20062;-64
2023/06/04 11:27:07;;;;;;;1.83;1.23;;;15.70;99.90;;;;;;4957614;28;20046;-62
2023/06/04 11:29:50;;;;;;;2.33;1.67;;;15.30;99.90;;;;;;4962475;28;20066;-66
2023/06/04 11:32:25;;;;;;;2.55;1.63;;;15.00;99.90;;;;;;4957081;28;20507;-67
2023/06/04 11:35:03;;;;;;;1.60;1.10;;;15.00;99.90;;;;;;4964428;28;20050;-68
2023/06/04 11:37:32;;;;;;;1.20;1.02;;;15.00;99.90;;;;;;4960041;28;20057;-68
2023/06/04 11:40:00;;;;;;;1.48;1.33;;;15.00;99.90;;;;;;4960873;28;20070;-63
2023/06/04 11:42:29;;;;;;;1.40;1.08;;;15.00;99.90;;;;;;4955208;28;20050;-63
2023/06/04 11:44:57;;;;;;;1.95;1.13;;;14.90;99.90;;;;;;4961730;28;20055;-63
2023/06/04 11:47:25;;;;;;;2.40;1.60;;;14.90;99.90;;;;;;4956209;28;21495;-64
2023/06/04 11:49:58;;;;;;;1.25;0.90;;;14.90;99.90;;;;;;4963628;28;20051;-71
2023/06/04 11:52:25;;;;;;;1.60;1.50;;;15.00;99.90;;;;;;4954233;28;20050;-61
2023/06/04 11:54:52;;;;;;;0.95;0.95;;;15.10;99.90;;;;;;4956922;28;20097;-71
2023/06/04 11:57:19;;;;;;;1.60;1.25;;;15.10;99.90;;;;;;4962169;28;20164;-66
2023/06/04 11:59:46;;;;;;;1.88;1.40;;;15.30;99.90;;;;;;4965373;28;20138;-65
2023/06/04 12:02:13;;;;;;;1.40;1.25;;;15.50;99.90;;;;;;4964256;28;20169;-65
2023/06/04 12:04:40;;;;;;;2.17;1.73;;;15.70;99.90;;;;;;4962392;28;20682;-63
2023/06/04 12:07:08;;;;;;;4.00;1.60;;;15.90;99.90;;;;;;4963209;28;20851;-64
2023/06/04 12:09:37;;;;;;;1.45;1.35;;;16.00;99.90;;;;;;4971745;28;20751;-65
2023/06/04 12:12:06;;;;;;;1.60;1.00;;;16.30;99.90;;;;;;4961137;28;20165;-64
2023/06/04 12:14:34;;;;;;;2.38;1.65;;;16.30;99.30;;;;;;4963653;28;20481;-63
2023/06/04 12:17:06;;;;;;;1.15;1.00;;;16.40;99.20;;;;;;4965667;28;20065;-70
2023/06/04 12:19:44;;;;;;;4.60;2.20;;;16.50;99.30;;;;;;4963183;28;20057;-71
2023/06/04 12:22:11;;;;;;;2.75;1.30;;;16.70;99.40;;;;;;4962015;28;20051;-68
2023/06/04 12:24:57;;;;;;;1.95;1.67;;;16.60;99.30;;;;;;4967587;28;20161;-60
2023/06/04 12:27:25;;;;;;;2.28;1.70;;;16.70;99.50;;;;;;4965286;28;20121;-68
2023/06/04 12:29:56;;;;;;;2.40;1.65;;;16.70;99.30;;;;;;4965027;28;20696;-68
2023/06/04 12:32:23;;;;;;;2.78;1.73;;;16.70;99.50;;;;;;4962440;28;20058;-67
2023/06/04 12:34:50;;;;;;;2.17;2.08;;;16.80;99.30;;;;;;4962130;28;20058;-72
2023/06/04 12:37:17;;;;;;;2.28;1.85;;;16.90;99.20;;;;;;4961658;28;20069;-66
2023/06/04 12:39:44;;;;;;;2.13;1.70;;;17.00;98.40;;;;;;4964521;28;20129;-74
2023/06/04 12:42:11;;;;;;;2.17;1.60;;;16.90;98.90;;;;;;4963714;28;20051;-72
2023/06/04 12:44:40;;;;;;;1.35;1.25;;;16.90;98.60;;;;;;4962447;28;20062;-69
2023/06/04 12:47:08;;;;;;;1.30;1.27;;;16.70;98.40;;;;;;4963983;28;20059;-71
2023/06/04 12:49:35;;;;;;;2.95;1.40;;;16.80;97.70;;;;;;4968302;28;20076;-65
2023/06/04 12:52:03;;;;;;;1.10;1.00;;;16.60;97.80;;;;;;4963431;28;20962;-69
2023/06/04 12:54:30;;;;;;;3.30;1.35;;;16.50;96.20;;;;;;4965312;28;20059;-64
2023/06/04 12:56:58;;;;;;;1.10;1.00;;;16.60;96.90;;;;;;4967117;28;20094;-65
2023/06/04 12:59:28;;;;;;;0.98;0.80;;;16.60;96.20;;;;;;4966160;28;20070;-64